createdAt,value
2022-10-21T00:02:10.850Z,100886.41
2022-10-21T00:04:42.546Z,100879.41
2022-10-21T00:07:14.201Z,100867.76
2022-10-21T00:09:45.916Z,100859.84
2022-10-21T00:12:17.479Z,100856.46
2022-10-21T00:14:51.562Z,100854.66
2022-10-21T00:17:25.617Z,100856.48
2022-10-21T00:19:57.301Z,100851.66
2022-10-21T00:22:28.821Z,100841.23
2022-10-21T00:25:00.467Z,100840.33
2022-10-21T00:27:32.273Z,100835.30
2022-10-21T00:30:07.474Z,100835.36
2022-10-21T00:32:39.920Z,100832.99
2022-10-21T00:35:10.464Z,100831.18
2022-10-21T00:37:42.099Z,100823.48
2022-10-21T00:40:14.339Z,100824.58
2022-10-21T00:42:46.963Z,100821.88
2022-10-21T00:45:23.292Z,100807.86
2022-10-21T00:48:00.925Z,100801.95
2022-10-21T00:50:38.853Z,100809.30
2022-10-21T00:53:15.774Z,100808.41
2022-10-21T00:55:51.651Z,100808.21
2022-10-21T00:58:26.335Z,100804.99
2022-10-21T01:00:59.835Z,100807.15
2022-10-21T01:03:33.170Z,100815.05
2022-10-21T01:06:08.199Z,100810.19
2022-10-21T01:08:40.179Z,100808.23
2022-10-21T01:11:15.694Z,100797.83
2022-10-21T01:13:59.471Z,100787.41
2022-10-21T01:16:44.345Z,100797.29
2022-10-21T01:19:42.604Z,100789.90
2022-10-21T01:22:30.848Z,100785.63
2022-10-21T01:25:25.040Z,100791.01
2022-10-21T01:28:05.557Z,100794.23
2022-10-21T01:30:42.778Z,100789.39
2022-10-21T01:33:42.934Z,100788.30
2022-10-21T01:36:26.017Z,100782.39
2022-10-21T01:39:08.975Z,100776.27
2022-10-21T01:41:46.060Z,100777.36
2022-10-21T01:44:23.885Z,100763.52
2022-10-21T01:47:00.451Z,100747.21
2022-10-21T01:49:37.337Z,100747.20
2022-10-21T01:52:09.869Z,100747.77
2022-10-21T01:54:45.646Z,100742.39
2022-10-21T01:57:21.931Z,100747.60
2022-10-21T01:59:55.498Z,100748.30
2022-10-21T02:02:33.216Z,100745.79
2022-10-21T02:05:13.629Z,100737.17
2022-10-21T02:07:45.311Z,100737.17
2022-10-21T02:10:19.221Z,100739.16
2022-10-21T02:12:55.977Z,100744.54
2022-10-21T02:15:31.042Z,100750.80
2022-10-21T02:18:08.324Z,100744.70
2022-10-21T02:20:43.541Z,100754.73
2022-10-21T02:23:18.166Z,100755.47
2022-10-21T02:25:51.851Z,100755.27
2022-10-21T02:28:23.726Z,100751.34
2022-10-21T02:31:06.375Z,100748.84
2022-10-21T02:33:52.058Z,100745.42
2022-10-21T02:36:31.385Z,100740.19
2022-10-21T02:39:08.349Z,100740.19
2022-10-21T02:41:41.681Z,100739.85
2022-10-21T02:44:14.116Z,100731.58
2022-10-21T02:46:48.224Z,100724.05
2022-10-21T02:49:20.088Z,100723.74
2022-10-21T02:51:51.761Z,100717.23
2022-10-21T02:54:23.478Z,100714.51
2022-10-21T02:56:55.101Z,100710.91
2022-10-21T02:59:26.906Z,100706.23
2022-10-21T03:01:58.486Z,100710.77
2022-10-21T03:04:30.146Z,100713.10
2022-10-21T03:07:01.860Z,100711.98
2022-10-21T03:09:33.449Z,100711.29
2022-10-21T03:12:05.101Z,100713.43
2022-10-21T03:14:36.971Z,100709.45
2022-10-21T03:17:08.566Z,100704.06
2022-10-21T03:19:40.183Z,100700.84
2022-10-21T03:22:11.942Z,100700.93
2022-10-21T03:24:43.573Z,100700.34
2022-10-21T03:27:15.957Z,100707.48
2022-10-21T03:29:50.257Z,100703.73
2022-10-21T03:32:21.849Z,100701.91
2022-10-21T03:34:53.733Z,100692.57
2022-10-21T03:37:25.420Z,100689.17
2022-10-21T03:39:57.243Z,100693.99
2022-10-21T03:42:29.753Z,100684.31
2022-10-21T03:45:02.507Z,100677.67
2022-10-21T03:47:34.229Z,100673.54
2022-10-21T03:50:11.868Z,100674.42
2022-10-21T03:52:45.919Z,100672.30
2022-10-21T03:55:20.674Z,100670.86
2022-10-21T03:57:53.159Z,100667.62
2022-10-21T04:00:25.158Z,100663.69
2022-10-21T04:02:58.867Z,100661.00
2022-10-21T04:05:30.571Z,100662.09
2022-10-21T04:08:02.402Z,100656.31
2022-10-21T04:10:33.935Z,100645.53
2022-10-21T04:13:06.335Z,100642.45
2022-10-21T04:15:37.891Z,100635.79
2022-10-21T04:18:09.934Z,100630.77
2022-10-21T04:20:42.179Z,100626.34
2022-10-21T04:23:13.717Z,100623.44
2022-10-21T04:25:47.848Z,100620.02
2022-10-21T04:28:19.650Z,100618.02
2022-10-21T04:30:51.736Z,100609.23
2022-10-21T04:33:23.485Z,100607.77
2022-10-21T04:35:56.681Z,100601.80
2022-10-21T04:38:28.985Z,100593.53
2022-10-21T04:41:02.806Z,100583.67
2022-10-21T04:43:34.337Z,100572.08
2022-10-21T04:46:12.063Z,100578.23
2022-10-21T04:48:46.102Z,100577.21
2022-10-21T04:51:18.119Z,100578.12
2022-10-21T04:53:50.081Z,100581.26
2022-10-21T04:56:21.720Z,100591.81
2022-10-21T04:58:53.252Z,100601.27
2022-10-21T05:01:24.984Z,100598.98
2022-10-21T05:03:56.706Z,100602.31
2022-10-21T05:06:28.444Z,100593.88
2022-10-21T05:09:00.620Z,100590.74
2022-10-21T05:11:32.396Z,100574.88
2022-10-21T05:14:04.025Z,100562.64
2022-10-21T05:16:36.133Z,100549.38
2022-10-21T05:19:07.938Z,100543.20
2022-10-21T05:21:39.531Z,100539.19
2022-10-21T05:24:11.181Z,100532.06
2022-10-21T05:26:43.041Z,100529.96
2022-10-21T05:29:15.162Z,100523.08
2022-10-21T05:31:47.101Z,100513.60
2022-10-21T05:34:19.450Z,100505.77
2022-10-21T05:36:51.434Z,100501.32
2022-10-21T05:39:23.026Z,100491.96
2022-10-21T05:41:54.790Z,100483.48
2022-10-21T05:44:26.763Z,100474.30
2022-10-21T05:46:58.433Z,100472.67
2022-10-21T05:49:30.110Z,100475.71
2022-10-21T05:52:02.248Z,100472.51
2022-10-21T05:54:34.518Z,100472.84
2022-10-21T05:57:06.212Z,100463.13
2022-10-21T05:59:37.898Z,100455.73
2022-10-21T06:02:10.132Z,100448.10
2022-10-21T06:04:44.050Z,100440.17
2022-10-21T06:07:15.856Z,100427.80
2022-10-21T06:09:47.636Z,100425.76
2022-10-21T06:12:19.285Z,100423.55
2022-10-21T06:14:51.648Z,100418.20
2022-10-21T06:17:23.963Z,100418.15
2022-10-21T06:19:56.058Z,100423.36
2022-10-21T06:22:27.690Z,100441.13
2022-10-21T06:24:59.582Z,100433.66
2022-10-21T06:27:31.360Z,100434.42
2022-10-21T06:30:03.062Z,100433.94
2022-10-21T06:32:35.659Z,100427.10
2022-10-21T06:35:07.920Z,100420.95
2022-10-21T06:37:39.881Z,100404.98
2022-10-21T06:40:12.990Z,100401.60
2022-10-21T06:42:45.081Z,100401.46
2022-10-21T06:45:17.108Z,100406.50
2022-10-21T06:47:48.765Z,100405.02
2022-10-21T06:50:20.739Z,100410.20
2022-10-21T06:52:52.405Z,100415.97
2022-10-21T06:55:24.852Z,100422.40
2022-10-21T06:57:56.640Z,100435.77
2022-10-21T07:03:05.140Z,100470.39
2022-10-21T07:05:36.788Z,100480.58
2022-10-21T07:08:10.621Z,100486.24
2022-10-21T07:10:46.065Z,100491.21
2022-10-21T07:13:21.110Z,100491.50
2022-10-21T07:16:02.550Z,100488.41
2022-10-21T07:18:37.003Z,100496.79
2022-10-21T07:21:18.021Z,100485.93
2022-10-21T07:23:51.324Z,100480.27
2022-10-21T07:26:24.799Z,100475.02
2022-10-21T07:28:58.754Z,100475.83
2022-10-21T07:31:32.895Z,100488.53
2022-10-21T07:34:08.186Z,100489.21
2022-10-21T07:36:42.383Z,100481.65
2022-10-21T07:39:16.830Z,100477.13
2022-10-21T07:41:53.193Z,100477.94
2022-10-21T07:44:27.478Z,100491.03
2022-10-21T07:46:59.648Z,100486.75
2022-10-21T07:49:31.616Z,100481.92
2022-10-21T07:52:03.285Z,100478.45
2022-10-21T07:54:35.035Z,100479.04
2022-10-21T07:57:07.009Z,100472.16
2022-10-21T07:59:39.334Z,100458.81
2022-10-21T08:02:13.317Z,100458.00
2022-10-21T08:04:45.154Z,100460.94
2022-10-21T08:07:16.901Z,100460.16
2022-10-21T08:09:48.667Z,100461.29
2022-10-21T08:12:20.361Z,100451.67
2022-10-21T08:14:53.049Z,100440.58
2022-10-21T08:17:26.327Z,100439.02
2022-10-21T08:19:58.161Z,100440.05
2022-10-21T08:22:30.063Z,100443.17
2022-10-21T08:25:01.876Z,100449.02
2022-10-21T08:27:34.693Z,100453.48
2022-10-21T08:30:07.602Z,100446.43
2022-10-21T08:32:40.080Z,100452.27
2022-10-21T08:35:12.733Z,100449.46
2022-10-21T08:37:48.837Z,100442.38
2022-10-21T08:40:21.468Z,100440.90
2022-10-21T08:42:53.611Z,100434.80
2022-10-21T08:45:39.244Z,100448.70
2022-10-21T08:48:19.850Z,100446.50
2022-10-21T08:50:53.373Z,100453.77
2022-10-21T08:53:31.130Z,100448.99
2022-10-21T08:56:07.914Z,100442.58
2022-10-21T08:58:39.862Z,100441.84
2022-10-21T09:01:24.645Z,100432.58
2022-10-21T09:04:01.374Z,100429.86
2022-10-21T09:06:40.554Z,100434.05
2022-10-21T09:09:20.695Z,100432.55
2022-10-21T09:12:07.118Z,100428.13
2022-10-21T09:14:57.274Z,100421.89
2022-10-21T09:17:50.507Z,100413.45
2022-10-21T09:20:28.108Z,100403.15
2022-10-21T09:23:08.954Z,100397.53
2022-10-21T09:25:47.289Z,100395.41
2022-10-21T09:28:19.021Z,100390.20
2022-10-21T09:30:51.916Z,100388.76
2022-10-21T09:33:24.362Z,100387.17
2022-10-21T09:36:02.707Z,100390.86
2022-10-21T09:38:45.961Z,100390.38
2022-10-21T09:43:56.401Z,100382.02
2022-10-21T09:46:28.206Z,100383.10
2022-10-21T09:49:36.762Z,100389.09
2022-10-21T09:51:52.690Z,100394.36
2022-10-21T09:54:27.942Z,100393.73
2022-10-21T09:57:05.243Z,100384.38
2022-10-21T09:59:37.711Z,100386.72
2022-10-21T10:02:16.344Z,100389.15
2022-10-21T10:04:48.010Z,100388.59
2022-10-21T10:07:34.673Z,100377.58
2022-10-21T10:10:29.256Z,100369.12
2022-10-21T10:13:01.419Z,100359.55
2022-10-21T10:15:36.503Z,100350.86
2022-10-21T10:18:23.363Z,100349.38
2022-10-21T10:21:13.251Z,100351.73
2022-10-21T10:23:50.530Z,100347.45
2022-10-21T10:26:30.112Z,100335.65
2022-10-21T10:29:09.641Z,100324.43
2022-10-21T10:31:50.682Z,100325.82
2022-10-21T10:34:25.387Z,100323.92
2022-10-21T10:37:08.174Z,100327.45
2022-10-21T10:39:44.251Z,100331.33
2022-10-21T10:42:23.471Z,100328.83
2022-10-21T10:44:57.880Z,100323.33
2022-10-21T10:47:32.460Z,100320.42
2022-10-21T10:50:04.822Z,100329.05
2022-10-21T10:52:36.486Z,100336.11
2022-10-21T10:55:19.717Z,100334.64
2022-10-21T10:58:10.686Z,100323.05
2022-10-21T11:00:46.139Z,100325.85
2022-10-21T11:03:26.090Z,100332.06
2022-10-21T11:06:06.849Z,100315.58
2022-10-21T11:08:43.716Z,100314.79
2022-10-21T11:11:21.729Z,100316.95
2022-10-21T11:13:54.522Z,100320.63
2022-10-21T11:16:44.867Z,100314.23
2022-10-21T11:19:31.207Z,100304.98
2022-10-21T11:22:13.185Z,100286.77
2022-10-21T11:24:55.410Z,100290.33
2022-10-21T11:27:49.915Z,100282.45
2022-10-21T11:30:24.419Z,100273.88
2022-10-21T11:33:11.419Z,100268.60
2022-10-21T11:35:58.027Z,100263.30
2022-10-21T11:38:49.780Z,100264.23
2022-10-21T11:41:32.112Z,100261.62
2022-10-21T11:44:16.378Z,100256.67
2022-10-21T11:46:59.143Z,100261.16
2022-10-21T11:49:44.705Z,100257.52
2022-10-21T11:52:28.155Z,100258.80
2022-10-21T11:55:12.418Z,100262.39
2022-10-21T11:57:50.987Z,100265.42
2022-10-21T12:00:25.166Z,100269.52
2022-10-21T12:03:26.104Z,100265.73
2022-10-21T12:06:03.819Z,100261.39
2022-10-21T12:08:44.376Z,100259.05
2022-10-21T12:11:23.433Z,100244.27
2022-10-21T12:13:59.044Z,100220.78
2022-10-21T12:16:34.628Z,100216.89
2022-10-21T12:19:11.947Z,100224.14
2022-10-21T12:21:46.735Z,100237.45
2022-10-21T12:24:29.807Z,100239.45
2022-10-21T12:27:11.089Z,100231.66
2022-10-21T12:29:53.408Z,100225.45
2022-10-21T12:32:31.209Z,100221.88
2022-10-21T12:35:03.807Z,100212.83
2022-10-21T12:38:22.338Z,100204.92
2022-10-21T12:41:27.823Z,100198.10
2022-10-21T12:44:15.839Z,100184.84
2022-10-21T12:46:50.680Z,100185.27
2022-10-21T12:49:26.214Z,100189.98
2022-10-21T12:52:10.107Z,100195.16
2022-10-21T12:54:52.344Z,100200.62
2022-10-21T12:57:31.413Z,100201.95
2022-10-21T13:00:32.799Z,100202.38
2022-10-21T13:03:07.889Z,100205.36
2022-10-21T13:06:03.552Z,100201.20
2022-10-21T13:08:52.780Z,100203.66
2022-10-21T13:11:38.239Z,100204.83
2022-10-21T13:14:35.383Z,100213.16
2022-10-21T13:17:31.689Z,100217.37
2022-10-21T13:20:40.573Z,100208.50
2022-10-21T13:23:32.341Z,100201.40
2022-10-21T13:26:14.799Z,100204.11
2022-10-21T13:29:19.771Z,100203.05
2022-10-21T13:32:31.005Z,100206.50
2022-10-21T13:35:08.880Z,100200.22
2022-10-21T13:37:44.920Z,100196.63
2022-10-21T13:40:30.619Z,100195.54
2022-10-21T13:43:06.664Z,100201.59
2022-10-21T13:45:44.449Z,100202.48
2022-10-21T13:48:18.658Z,100198.39
2022-10-21T13:50:52.000Z,100194.93
2022-10-21T13:53:28.560Z,100201.20
2022-10-21T13:56:03.423Z,100204.74
2022-10-21T13:58:40.195Z,100201.42
2022-10-21T14:01:14.462Z,100202.38
2022-10-21T14:03:46.795Z,100208.55
2022-10-21T14:06:30.305Z,100213.42
2022-10-21T14:09:08.048Z,100221.65
2022-10-21T14:11:48.701Z,100217.58
2022-10-21T14:14:24.692Z,100216.52
2022-10-21T14:17:00.289Z,100210.81
2022-10-21T14:19:35.328Z,100208.15
2022-10-21T14:22:09.847Z,100204.88
2022-10-21T14:24:44.331Z,100199.79
2022-10-21T14:27:20.788Z,100199.37
2022-10-21T14:29:53.158Z,100202.48
2022-10-21T14:32:28.128Z,100199.58
2022-10-21T14:35:07.053Z,100198.02
2022-10-21T14:37:45.622Z,100195.89
2022-10-21T14:40:26.734Z,100197.11
2022-10-21T14:42:59.557Z,100196.93
2022-10-21T14:45:30.446Z,100198.88
2022-10-21T14:48:17.407Z,100194.26
2022-10-21T14:50:56.295Z,100193.87
2022-10-21T14:53:32.679Z,100193.15
2022-10-21T14:56:07.769Z,100197.07
2022-10-21T14:58:41.142Z,100196.95
2022-10-21T15:01:17.766Z,100193.02
2022-10-21T15:03:51.953Z,100191.34
2022-10-21T15:06:25.851Z,100190.36
2022-10-21T15:09:17.062Z,100193.18
2022-10-21T15:11:49.554Z,100187.80
2022-10-21T15:14:28.735Z,100187.05
2022-10-21T15:17:03.922Z,100183.78
2022-10-21T15:19:45.837Z,100179.73
2022-10-21T15:22:30.960Z,100178.94
2022-10-21T15:25:08.987Z,100176.86
2022-10-21T15:27:44.337Z,100176.02
2022-10-21T15:30:21.471Z,100173.61
2022-10-21T15:32:55.178Z,100172.63
2022-10-21T15:35:26.944Z,100173.78
2022-10-21T15:37:58.632Z,100168.56
2022-10-21T15:40:32.842Z,100173.64
2022-10-21T15:43:05.031Z,100172.65
2022-10-21T15:45:36.750Z,100174.77
2022-10-21T15:48:12.611Z,100173.98
2022-10-21T15:50:44.636Z,100174.49
2022-10-21T15:53:16.539Z,100167.84
2022-10-21T15:55:48.922Z,100166.37
2022-10-21T15:58:20.726Z,100169.70
2022-10-21T16:00:53.418Z,100170.31
2022-10-21T16:03:24.014Z,100170.45
2022-10-21T16:05:55.726Z,100169.71
2022-10-21T16:08:27.772Z,100172.06
2022-10-21T16:10:59.700Z,100164.08
2022-10-21T16:13:31.697Z,100167.08
2022-10-21T16:16:05.122Z,100165.81
2022-10-21T16:18:36.913Z,100162.45
2022-10-21T16:21:10.093Z,100156.91
2022-10-21T16:23:42.434Z,100156.54
2022-10-21T16:26:20.650Z,100161.29
2022-10-21T16:28:53.629Z,100157.53
2022-10-21T16:31:27.760Z,100158.48
2022-10-21T16:33:59.601Z,100154.19
2022-10-21T16:36:36.902Z,100151.61
2022-10-21T16:39:14.621Z,100151.77
2022-10-21T16:41:46.422Z,100147.58
2022-10-21T16:44:18.872Z,100143.13
2022-10-21T16:46:53.442Z,100142.17
2022-10-21T16:49:28.035Z,100144.35
2022-10-21T16:52:00.923Z,100140.96
2022-10-21T16:54:34.215Z,100134.55
2022-10-21T16:57:06.939Z,100138.77
2022-10-21T16:59:39.003Z,100131.73
2022-10-21T17:02:17.278Z,100131.70
2022-10-21T17:04:49.183Z,100128.73
2022-10-21T17:07:20.985Z,100129.52
2022-10-21T17:09:52.912Z,100124.58
2022-10-21T17:12:25.950Z,100121.89
2022-10-21T17:14:57.805Z,100119.77
2022-10-21T17:17:29.749Z,100115.20
2022-10-21T17:20:01.492Z,100118.55
2022-10-21T17:22:33.627Z,100119.73
2022-10-21T17:25:05.907Z,100116.38
2022-10-21T17:27:37.822Z,100109.65
2022-10-21T17:30:12.370Z,100108.56
2022-10-21T17:32:44.463Z,100102.83
2022-10-21T17:35:19.791Z,100098.32
2022-10-21T17:37:52.911Z,100087.29
2022-10-21T17:40:26.884Z,100089.21
2022-10-21T17:42:59.231Z,100089.48
2022-10-21T17:45:31.116Z,100094.42
2022-10-21T17:48:03.710Z,100093.52
2022-10-21T17:50:36.631Z,100090.29
2022-10-21T17:53:08.804Z,100091.11
2022-10-21T17:55:40.625Z,100087.27
2022-10-21T17:58:12.476Z,100087.57
2022-10-21T18:00:44.821Z,100087.62
2022-10-21T18:03:18.291Z,100085.88
2022-10-21T18:05:50.804Z,100084.65
2022-10-21T18:08:22.859Z,100083.38
2022-10-21T18:10:56.322Z,100091.77
2022-10-21T18:13:30.538Z,100099.17
2022-10-21T18:16:17.434Z,100103.61
2022-10-21T18:18:49.861Z,100102.88
2022-10-21T18:21:24.190Z,100104.02
2022-10-21T18:23:57.152Z,100109.66
2022-10-21T18:26:30.892Z,100115.55
2022-10-21T18:29:05.870Z,100115.96
2022-10-21T18:31:38.767Z,100115.91
2022-10-21T18:34:12.855Z,100114.86
2022-10-21T18:36:45.249Z,100118.17
2022-10-21T18:39:17.179Z,100115.84
2022-10-21T18:41:49.359Z,100118.30
2022-10-21T18:44:21.231Z,100116.88
2022-10-21T18:46:55.939Z,100122.15
2022-10-21T18:49:28.371Z,100119.13
2022-10-21T18:52:00.592Z,100117.50
2022-10-21T18:54:32.807Z,100123.20
2022-10-21T18:57:07.774Z,100119.70
2022-10-21T18:59:40.017Z,100119.38
2022-10-21T19:02:17.995Z,100122.27
2022-10-21T19:04:50.558Z,100126.13
2022-10-21T19:07:23.097Z,100126.98
2022-10-21T19:09:55.004Z,100129.20
2022-10-21T19:12:27.112Z,100132.93
2022-10-21T19:14:59.453Z,100130.13
2022-10-21T19:17:32.623Z,100128.50
2022-10-21T19:20:05.098Z,100130.05
2022-10-21T19:22:35.889Z,100133.73
2022-10-21T19:25:09.877Z,100136.34
2022-10-21T19:27:42.091Z,100142.20
2022-10-21T19:30:15.175Z,100141.57
2022-10-21T19:32:47.202Z,100137.46
2022-10-21T19:35:20.113Z,100139.27
2022-10-21T19:37:52.594Z,100137.37
2022-10-21T19:40:25.250Z,100129.59
2022-10-21T19:42:58.307Z,100131.89
2022-10-21T19:45:30.422Z,100129.64
2022-10-21T19:48:03.422Z,100135.99
2022-10-21T19:50:37.498Z,100134.73
2022-10-21T19:53:09.662Z,100138.63
2022-10-21T19:55:41.668Z,100141.77
2022-10-21T19:58:13.617Z,100145.73
2022-10-21T20:00:45.556Z,100149.52
2022-10-21T20:03:18.515Z,100145.37
2022-10-21T20:05:50.742Z,100147.13
2022-10-21T20:08:22.729Z,100143.30
2022-10-21T20:11:12.521Z,100142.88
2022-10-21T20:13:46.060Z,100137.13
2022-10-21T20:16:21.660Z,100142.18
2022-10-21T20:18:56.702Z,100148.02
2022-10-21T20:21:28.783Z,100148.63
2022-10-21T20:24:02.008Z,100147.54
2022-10-21T20:26:34.871Z,100147.05
2022-10-21T20:29:06.940Z,100144.62
2022-10-21T20:31:38.938Z,100141.13
2022-10-21T20:34:14.539Z,100138.49
2022-10-21T20:36:47.235Z,100134.80
2022-10-21T20:39:19.089Z,100136.79
2022-10-21T20:41:51.014Z,100136.73
2022-10-21T20:44:22.904Z,100134.67
2022-10-21T20:46:54.708Z,100132.19
2022-10-21T20:49:26.649Z,100130.13
2022-10-21T20:51:58.604Z,100132.94
2022-10-21T20:54:31.408Z,100130.98
2022-10-21T20:57:01.929Z,100130.83
2022-10-21T20:59:36.461Z,100130.83
2022-10-21T21:02:10.449Z,100130.14
2022-10-21T21:04:42.120Z,100124.39
2022-10-21T21:07:14.910Z,100124.23
2022-10-21T21:10:03.449Z,100120.48
2022-10-21T21:12:35.503Z,100117.58
2022-10-21T21:15:09.326Z,100119.70
2022-10-21T21:17:40.931Z,100123.00
2022-10-21T21:20:13.379Z,100121.04
2022-10-21T21:22:45.262Z,100117.40
2022-10-21T21:25:16.906Z,100114.05
2022-10-21T21:27:48.742Z,100115.24
2022-10-21T21:30:20.535Z,100117.27
2022-10-21T21:32:52.359Z,100107.64
2022-10-21T21:35:24.354Z,100110.42
2022-10-21T21:37:56.131Z,100105.03
2022-10-21T21:40:29.237Z,100103.27
2022-10-21T21:43:00.831Z,100102.61
2022-10-21T21:45:32.466Z,100100.96
2022-10-21T21:48:04.317Z,100099.10
2022-10-21T21:50:36.148Z,100095.57
2022-10-21T21:53:08.779Z,100091.76
2022-10-21T21:55:40.560Z,100087.04
2022-10-21T21:58:12.747Z,100086.66
2022-10-21T22:00:44.358Z,100081.24
2022-10-21T22:03:16.053Z,100081.30
2022-10-21T22:05:47.921Z,100077.94
2022-10-21T22:08:19.490Z,100074.56
2022-10-21T22:10:51.119Z,100077.67
2022-10-21T22:13:22.730Z,100078.67
2022-10-21T22:15:54.331Z,100079.33
2022-10-21T22:18:26.180Z,100081.09
2022-10-21T22:21:01.290Z,100082.52
2022-10-21T22:23:33.151Z,100080.88
2022-10-21T22:26:05.240Z,100078.48
2022-10-21T22:28:36.852Z,100078.13
2022-10-21T22:31:11.168Z,100084.43
2022-10-21T22:36:21.444Z,100076.98
2022-10-21T22:38:53.466Z,100077.41
2022-10-21T22:41:25.093Z,100082.29
2022-10-21T22:43:56.693Z,100083.41
2022-10-21T22:46:33.958Z,100084.30
2022-10-21T22:49:07.223Z,100084.10
2022-10-21T22:51:38.800Z,100079.95
2022-10-21T22:54:24.293Z,100079.34
2022-10-21T22:57:03.619Z,100076.30
2022-10-21T22:59:37.054Z,100073.57
2022-10-21T23:02:09.280Z,100075.68
2022-10-21T23:04:40.866Z,100075.18
2022-10-21T23:07:12.507Z,100074.58
2022-10-21T23:09:44.188Z,100072.93
2022-10-21T23:12:16.787Z,100071.16
2022-10-21T23:14:48.539Z,100075.44
2022-10-21T23:17:20.190Z,100075.10
2022-10-21T23:19:51.780Z,100068.42
2022-10-21T23:22:23.587Z,100068.80
2022-10-21T23:24:55.210Z,100067.66
2022-10-21T23:27:28.076Z,100062.02
2022-10-21T23:29:59.783Z,100059.27
2022-10-21T23:32:31.425Z,100060.30
2022-10-21T23:35:03.267Z,100062.89
2022-10-21T23:37:35.052Z,100066.92
2022-10-21T23:40:08.290Z,100065.64
2022-10-21T23:42:42.843Z,100063.89
2022-10-21T23:45:14.882Z,100066.27
2022-10-21T23:47:46.496Z,100068.33
2022-10-21T23:50:18.820Z,100064.46
2022-10-21T23:52:50.530Z,100064.20
2022-10-21T23:55:22.462Z,100069.26
2022-10-21T23:57:54.096Z,100072.70
